Time;durP1;ratioP1;P1;durP2;ratioP2;P2;SDS_P1;SDS_P2;PMS_P1;PMS_P2;Temp;Humidity;BMP_temperature;BMP_pressure;BME280_temperature;BME280_humidity;BME280_pressure;Samples;Min_cycle;Max_cycle;Signal;HPM_P1;HPM_P2
2022/09/11 00:00:36;;;;;;;4.25;1.00;;;16.50;99.90;;;;;;5015296;28;20080;-89
2022/09/11 00:03:01;;;;;;;2.53;1.08;;;16.60;99.90;;;;;;5014554;28;20112;-88
2022/09/11 00:05:28;;;;;;;3.30;1.00;;;16.50;99.90;;;;;;5016141;28;20379;-89
2022/09/11 00:07:55;;;;;;;4.78;0.95;;;16.50;99.90;;;;;;5015380;28;20022;-89
2022/09/11 00:10:23;;;;;;;7.30;1.00;;;16.60;99.90;;;;;;5015478;28;20129;-89
2022/09/11 00:12:49;;;;;;;3.92;0.82;;;16.50;99.90;;;;;;5015340;28;20049;-89
2022/09/11 00:15:14;;;;;;;3.60;0.80;;;16.60;99.90;;;;;;5014498;28;20034;-90
2022/09/11 00:17:40;;;;;;;2.55;1.05;;;16.60;99.90;;;;;;5016060;28;20132;-90
2022/09/11 00:20:06;;;;;;;2.85;0.90;;;16.60;99.90;;;;;;5014527;28;20030;-91
2022/09/11 00:22:31;;;;;;;2.13;1.23;;;16.60;99.90;;;;;;5014839;28;20536;-90
2022/09/11 00:24:58;;;;;;;2.08;0.73;;;16.60;99.90;;;;;;5015573;28;20026;-94
2022/09/11 00:27:24;;;;;;;2.85;1.05;;;16.60;99.90;;;;;;5019892;28;20022;-96
2022/09/11 00:29:49;;;;;;;2.85;0.80;;;16.60;99.90;;;;;;5017481;28;20056;-96
2022/09/11 00:32:15;;;;;;;2.17;0.70;;;16.60;99.90;;;;;;5014885;28;20030;-95
2022/09/11 00:34:41;;;;;;;5.88;1.30;;;16.60;99.90;;;;;;5015166;28;20022;-94
2022/09/11 00:37:07;;;;;;;8.27;1.83;;;16.60;99.90;;;;;;5014375;28;20120;-95
2022/09/11 00:39:33;;;;;;;2.55;1.25;;;16.60;99.90;;;;;;5014971;28;20034;-95
2022/09/11 00:41:59;;;;;;;3.75;1.10;;;16.60;99.90;;;;;;5015488;28;20030;-86
2022/09/11 00:44:25;;;;;;;2.65;0.85;;;16.60;99.90;;;;;;5015840;28;20384;-86
2022/09/11 00:46:59;;;;;;;3.40;0.95;;;16.60;99.90;;;;;;5014473;28;20035;-85
2022/09/11 00:49:39;;;;;;;3.53;0.85;;;16.60;99.90;;;;;;5015173;28;20390;-85
2022/09/11 00:52:13;;;;;;;2.85;0.90;;;16.60;99.90;;;;;;5014050;28;20475;-86
2022/09/11 00:54:47;;;;;;;1.65;0.85;;;16.60;99.90;;;;;;5014799;28;20387;-86
2022/09/11 00:57:12;;;;;;;2.95;1.00;;;16.60;99.90;;;;;;5013896;28;20080;-86
2022/09/11 00:59:42;;;;;;;2.35;0.90;;;16.60;99.90;;;;;;5014384;28;20034;-86
2022/09/11 01:02:12;;;;;;;2.28;0.90;;;16.60;99.90;;;;;;5013721;28;20373;-86
2022/09/11 01:04:38;;;;;;;5.97;1.15;;;16.60;99.90;;;;;;5014494;28;20180;-86
2022/09/11 01:07:04;;;;;;;2.00;0.73;;;16.60;99.90;;;;;;5013724;28;20056;-86
2022/09/11 01:09:31;;;;;;;5.15;1.23;;;16.60;99.90;;;;;;5015114;28;20124;-86
2022/09/11 01:12:02;;;;;;;2.53;1.30;;;16.60;99.90;;;;;;5014324;28;20475;-86
2022/09/11 01:14:43;;;;;;;4.23;1.17;;;16.60;99.90;;;;;;5013380;28;20041;-86
2022/09/11 01:17:24;;;;;;;1.83;0.63;;;16.60;99.90;;;;;;5014295;28;20529;-86
2022/09/11 01:20:34;;;;;;;5.53;1.17;;;16.60;99.90;;;;;;5014815;28;20383;-85
2022/09/11 01:23:03;;;;;;;1.50;0.98;;;16.60;99.90;;;;;;5014494;28;20018;-86
2022/09/11 01:25:50;;;;;;;2.00;1.20;;;16.60;99.90;;;;;;5015146;28;20029;-86
2022/09/11 01:28:23;;;;;;;5.03;1.00;;;16.60;99.90;;;;;;5014356;28;20132;-86
2022/09/11 01:31:01;;;;;;;3.35;1.00;;;16.60;99.90;;;;;;5013915;28;20092;-86
2022/09/11 01:33:54;;;;;;;1.77;1.00;;;16.60;99.90;;;;;;5015106;28;20105;-86
2022/09/11 01:36:27;;;;;;;2.03;1.20;;;16.60;99.90;;;;;;5013756;28;20048;-84
2022/09/11 01:38:59;;;;;;;2.00;1.33;;;16.60;99.90;;;;;;5014414;28;20471;-85
2022/09/11 01:41:31;;;;;;;3.20;0.85;;;16.60;99.90;;;;;;5013239;28;20026;-85
2022/09/11 01:44:02;;;;;;;6.53;1.10;;;16.60;99.90;;;;;;5013492;28;20030;-86
2022/09/11 01:46:33;;;;;;;5.40;1.33;;;16.70;99.90;;;;;;5013688;28;20049;-87
2022/09/11 01:49:10;;;;;;;2.10;1.25;;;16.70;99.90;;;;;;5014510;28;20482;-90
2022/09/11 01:51:39;;;;;;;2.38;0.90;;;16.70;99.90;;;;;;5014672;28;20117;-90
2022/09/11 01:54:13;;;;;;;3.63;1.30;;;16.70;99.90;;;;;;5014025;28;20048;-89
2022/09/11 01:56:47;;;;;;;3.70;1.20;;;16.60;99.90;;;;;;5013545;28;20054;-90
2022/09/11 01:59:16;;;;;;;1.90;0.93;;;16.60;99.90;;;;;;5014162;28;20081;-90
2022/09/11 02:01:50;;;;;;;2.10;1.25;;;16.70;99.90;;;;;;5013403;28;20030;-90
2022/09/11 02:04:28;;;;;;;3.40;1.10;;;16.70;99.90;;;;;;5013026;28;20049;-90
2022/09/11 02:07:18;;;;;;;3.08;1.10;;;16.70;99.90;;;;;;5013034;28;20029;-90
2022/09/11 02:09:58;;;;;;;4.15;1.38;;;16.70;99.90;;;;;;5014251;28;20029;-90
2022/09/11 02:12:29;;;;;;;3.80;1.30;;;16.70;99.90;;;;;;5012995;28;20030;-90
2022/09/11 02:14:55;;;;;;;;;;;16.70;99.90;;;;;;5014989;28;20153;-90
2022/09/11 02:17:47;;;;;;;5.10;1.08;;;16.70;99.90;;;;;;5012659;28;20390;-85
2022/09/11 02:20:13;;;;;;;2.95;1.10;;;16.70;99.90;;;;;;5012698;28;20040;-88
2022/09/11 02:22:39;;;;;;;5.13;1.10;;;16.70;99.90;;;;;;5014292;28;20101;-88
2022/09/11 02:25:05;;;;;;;2.70;1.25;;;16.70;99.90;;;;;;5015060;28;20064;-87
2022/09/11 02:27:32;;;;;;;2.05;1.40;;;16.60;99.90;;;;;;5018082;28;20022;-88
2022/09/11 02:29:58;;;;;;;1.92;1.38;;;16.70;99.90;;;;;;5017202;28;20038;-88
2022/09/11 02:32:26;;;;;;;3.05;1.20;;;16.70;99.90;;;;;;5017677;28;20034;-88
2022/09/11 02:34:56;;;;;;;11.00;2.10;;;16.70;99.90;;;;;;5017524;28;20022;-87
2022/09/11 02:37:34;;;;;;;6.20;2.30;;;16.70;99.90;;;;;;5017881;28;20033;-88
2022/09/11 02:40:23;;;;;;;4.47;1.10;;;16.60;99.90;;;;;;5017231;28;20037;-87
2022/09/11 02:43:00;;;;;;;4.20;1.67;;;16.60;99.90;;;;;;5017978;28;20025;-87
2022/09/11 02:45:41;;;;;;;4.25;1.40;;;16.60;99.90;;;;;;5016721;28;20093;-88
2022/09/11 02:48:25;;;;;;;2.20;1.07;;;16.60;99.90;;;;;;5016561;28;20034;-87
2022/09/11 02:51:04;;;;;;;3.53;1.40;;;16.60;99.90;;;;;;5017150;28;20091;-89
2022/09/11 02:53:46;;;;;;;1.98;1.10;;;16.60;99.90;;;;;;5016892;28;20033;-89
2022/09/11 02:56:27;;;;;;;3.83;1.10;;;16.60;99.90;;;;;;5016406;28;20048;-90
2022/09/11 02:58:57;;;;;;;5.00;1.40;;;16.60;99.90;;;;;;5017636;28;20088;-90
2022/09/11 03:01:23;;;;;;;4.55;1.55;;;16.50;99.90;;;;;;5015967;28;20037;-90
2022/09/11 03:03:49;;;;;;;5.57;1.52;;;16.50;99.90;;;;;;5016410;28;20029;-85
2022/09/11 03:06:20;;;;;;;3.95;1.48;;;16.50;99.90;;;;;;5016352;28;20026;-84
2022/09/11 03:08:46;;;;;;;4.25;1.83;;;16.50;99.90;;;;;;5016520;28;20479;-91
2022/09/11 03:11:16;;;;;;;3.58;1.75;;;16.50;99.90;;;;;;5015862;28;20034;-92
2022/09/11 03:13:43;;;;;;;5.07;1.50;;;16.50;99.90;;;;;;5016462;28;20092;-91
2022/09/11 03:16:09;;;;;;;1.83;1.50;;;16.50;99.90;;;;;;5015505;28;20112;-93
2022/09/11 03:18:35;;;;;;;4.18;1.77;;;16.50;99.90;;;;;;5017576;28;20041;-93
2022/09/11 03:21:02;;;;;;;5.03;1.67;;;16.50;99.90;;;;;;5016396;28;20463;-89
2022/09/11 03:23:28;;;;;;;6.32;1.88;;;16.50;99.90;;;;;;5015906;28;20022;-90
2022/09/11 03:25:54;;;;;;;2.72;1.48;;;16.50;99.90;;;;;;5016339;28;20463;-90
2022/09/11 03:28:21;;;;;;;3.40;1.63;;;16.50;99.90;;;;;;5015769;28;20033;-89
2022/09/11 03:30:48;;;;;;;4.05;1.70;;;16.50;99.90;;;;;;5017111;28;20057;-89
2022/09/11 03:33:16;;;;;;;2.53;1.73;;;16.50;99.90;;;;;;5016512;28;20033;-90
2022/09/11 03:35:42;;;;;;;3.55;1.58;;;16.50;99.90;;;;;;5015669;28;20030;-95
2022/09/11 03:38:07;;;;;;;5.43;1.73;;;16.50;99.90;;;;;;5015608;28;20026;-90
2022/09/11 03:40:33;;;;;;;4.72;2.15;;;16.50;99.90;;;;;;5015920;28;20041;-85
2022/09/11 03:42:59;;;;;;;5.30;2.10;;;16.50;99.90;;;;;;5016643;28;20058;-86
2022/09/11 03:45:24;;;;;;;8.23;1.65;;;16.50;99.90;;;;;;5016568;28;20018;-87
2022/09/11 03:47:50;;;;;;;8.02;2.40;;;16.60;99.90;;;;;;5015741;28;20042;-86
2022/09/11 03:50:15;;;;;;;4.63;2.10;;;16.60;99.90;;;;;;5015215;28;20061;-86
2022/09/11 03:52:42;;;;;;;6.32;2.03;;;16.60;99.90;;;;;;5016572;28;20510;-87
2022/09/11 03:55:08;;;;;;;4.43;1.88;;;16.60;99.90;;;;;;5015774;28;20030;-87
2022/09/11 03:57:35;;;;;;;1.95;1.55;;;16.60;99.90;;;;;;5015468;28;20037;-86
2022/09/11 04:00:02;;;;;;;4.47;2.00;;;16.60;99.90;;;;;;5016497;28;20034;-88
2022/09/11 04:02:28;;;;;;;4.05;1.88;;;16.60;99.90;;;;;;5015155;28;20455;-90
2022/09/11 04:04:54;;;;;;;3.38;1.77;;;16.60;99.90;;;;;;5015537;28;20083;-89
2022/09/11 04:07:20;;;;;;;3.90;1.73;;;16.60;99.90;;;;;;5015854;28;20474;-90
2022/09/11 04:09:45;;;;;;;2.78;1.73;;;16.60;99.90;;;;;;5015609;28;20392;-90
2022/09/11 04:12:11;;;;;;;5.50;1.80;;;16.60;99.90;;;;;;5014949;28;20030;-90
2022/09/11 04:14:37;;;;;;;3.35;1.70;;;16.60;99.90;;;;;;5016716;28;20030;-85
2022/09/11 04:17:03;;;;;;;4.20;1.75;;;16.60;99.90;;;;;;5015815;28;20057;-85
2022/09/11 04:19:29;;;;;;;3.58;1.88;;;16.60;99.90;;;;;;5014974;28;20221;-85
2022/09/11 04:21:55;;;;;;;4.18;1.80;;;16.60;99.90;;;;;;5016185;28;20030;-85
2022/09/11 04:24:20;;;;;;;4.72;1.85;;;16.70;99.90;;;;;;5015697;28;20026;-86
2022/09/11 04:26:46;;;;;;;2.45;1.90;;;16.70;99.90;;;;;;5014832;28;20053;-86
2022/09/11 04:29:12;;;;;;;2.35;1.80;;;16.70;99.90;;;;;;5014227;28;20038;-88
2022/09/11 04:31:39;;;;;;;8.30;2.25;;;16.70;99.90;;;;;;5015560;28;20030;-88
2022/09/11 04:34:05;;;;;;;4.15;2.03;;;16.70;99.90;;;;;;5014626;28;20060;-88
2022/09/11 04:36:31;;;;;;;3.67;1.80;;;16.70;99.90;;;;;;5014068;28;20034;-88
2022/09/11 04:38:59;;;;;;;4.70;2.05;;;16.70;99.90;;;;;;5016204;28;20452;-89
2022/09/11 04:41:25;;;;;;;3.50;1.70;;;16.70;99.90;;;;;;5014514;28;20026;-89
2022/09/11 04:43:54;;;;;;;6.13;1.88;;;16.70;99.90;;;;;;5015520;28;20030;-89
2022/09/11 04:46:20;;;;;;;6.47;1.77;;;16.60;99.90;;;;;;5013969;28;20037;-89
2022/09/11 04:48:48;;;;;;;2.97;1.77;;;16.70;99.90;;;;;;5013921;28;20022;-89
2022/09/11 04:51:25;;;;;;;2.30;1.95;;;16.70;99.90;;;;;;5014135;28;20030;-82
2022/09/11 04:53:56;;;;;;;3.70;1.90;;;16.70;99.90;;;;;;5014610;28;20034;-82
2022/09/11 04:56:23;;;;;;;4.22;1.73;;;16.70;99.90;;;;;;5014003;28;20463;-83
2022/09/11 04:58:54;;;;;;;4.82;2.08;;;16.70;99.90;;;;;;5015189;28;20033;-83
2022/09/11 05:01:20;;;;;;;4.35;2.10;;;16.70;99.90;;;;;;5014368;28;20079;-89
2022/09/11 05:03:45;;;;;;;6.18;1.90;;;16.70;99.90;;;;;;5015144;28;20032;-89
2022/09/11 05:06:15;;;;;;;3.97;1.77;;;16.70;99.90;;;;;;5014681;28;20037;-89
2022/09/11 05:08:45;;;;;;;4.35;2.00;;;16.70;99.90;;;;;;5015306;28;20109;-88
2022/09/11 05:11:12;;;;;;;4.63;2.08;;;16.70;99.90;;;;;;5015254;28;20038;-88
2022/09/11 05:13:38;;;;;;;5.22;2.00;;;16.70;99.90;;;;;;5014168;28;20026;-88
2022/09/11 05:16:07;;;;;;;6.35;1.95;;;16.70;99.90;;;;;;5013757;28;20050;-87
2022/09/11 05:18:33;;;;;;;4.03;2.00;;;16.70;99.90;;;;;;5014728;28;20291;-88
2022/09/11 05:21:00;;;;;;;7.93;3.30;;;16.70;99.90;;;;;;5014616;28;20030;-87
2022/09/11 05:23:26;;;;;;;3.55;1.98;;;16.70;99.90;;;;;;5014569;28;20029;-87
2022/09/11 05:25:59;;;;;;;4.18;2.13;;;16.70;99.90;;;;;;5014085;28;20032;-87
2022/09/11 05:28:29;;;;;;;5.68;2.20;;;16.70;99.90;;;;;;5013672;28;20036;-86
2022/09/11 05:30:55;;;;;;;7.30;2.08;;;16.70;99.90;;;;;;5013891;28;20041;-88
2022/09/11 05:33:26;;;;;;;4.35;1.90;;;16.70;99.90;;;;;;5014607;28;20080;-90
2022/09/11 05:35:53;;;;;;;5.13;2.25;;;16.70;99.90;;;;;;5014102;28;20022;-89
2022/09/11 05:38:20;;;;;;;4.72;2.38;;;16.70;99.90;;;;;;5013334;28;20383;-89
2022/09/11 05:40:48;;;;;;;3.88;2.28;;;16.70;99.90;;;;;;5015210;28;20104;-89
2022/09/11 05:43:14;;;;;;;6.00;2.63;;;16.70;99.90;;;;;;5013843;28;20034;-89
2022/09/11 05:45:44;;;;;;;4.20;2.15;;;16.70;99.90;;;;;;5014095;28;20030;-88
2022/09/11 05:48:11;;;;;;;3.83;2.30;;;16.70;99.90;;;;;;5013680;28;20041;-89
2022/09/11 05:50:37;;;;;;;5.03;2.13;;;16.70;99.90;;;;;;5013356;28;20482;-89
2022/09/11 05:53:04;;;;;;;6.13;2.22;;;16.70;99.90;;;;;;5013729;28;20067;-89
2022/09/11 05:55:34;;;;;;;4.13;2.42;;;16.70;99.90;;;;;;5013749;28;20026;-89
2022/09/11 05:58:01;;;;;;;6.03;2.35;;;16.70;99.90;;;;;;5013834;28;20030;-89
2022/09/11 06:00:28;;;;;;;4.85;2.45;;;16.80;99.90;;;;;;5012670;28;20037;-88
2022/09/11 06:02:54;;;;;;;3.10;2.25;;;16.80;99.90;;;;;;5013566;28;20026;-89
2022/09/11 06:05:20;;;;;;;4.05;2.10;;;16.80;99.90;;;;;;5012977;28;20033;-88
2022/09/11 06:07:46;;;;;;;4.15;2.25;;;16.80;99.90;;;;;;5014566;28;20026;-90
2022/09/11 06:10:12;;;;;;;3.58;2.20;;;16.80;99.90;;;;;;5013181;28;20502;-88
2022/09/11 06:12:37;;;;;;;4.28;2.40;;;16.90;99.90;;;;;;5013111;28;20029;-88
2022/09/11 06:15:03;;;;;;;5.88;2.70;;;16.90;99.90;;;;;;5013042;28;20030;-89
2022/09/11 06:17:29;;;;;;;3.38;2.25;;;16.90;99.90;;;;;;5012605;28;20136;-85
2022/09/11 06:19:55;;;;;;;4.82;2.63;;;17.00;99.90;;;;;;5013011;28;20057;-86
2022/09/11 06:22:20;;;;;;;6.80;2.45;;;17.00;99.90;;;;;;5013811;28;20072;-86
2022/09/11 06:24:47;;;;;;;4.65;2.10;;;17.00;99.90;;;;;;5013107;28;20101;-88
2022/09/11 06:27:13;;;;;;;4.85;2.40;;;17.00;99.90;;;;;;5013015;28;20065;-87
2022/09/11 06:29:39;;;;;;;4.35;2.47;;;17.00;99.90;;;;;;5012453;28;20066;-86
2022/09/11 06:32:05;;;;;;;5.88;2.60;;;17.00;99.90;;;;;;5013076;28;20053;-86
2022/09/11 06:34:31;;;;;;;4.53;2.20;;;17.00;99.90;;;;;;5012548;28;20046;-87
2022/09/11 06:36:57;;;;;;;4.32;2.40;;;17.10;99.90;;;;;;5012998;28;20061;-87
2022/09/11 06:39:22;;;;;;;4.70;2.25;;;17.10;99.90;;;;;;5013504;28;20068;-87
2022/09/11 06:41:49;;;;;;;5.63;2.85;;;17.10;99.90;;;;;;5014619;28;20514;-87
2022/09/11 06:44:14;;;;;;;4.90;2.80;;;17.00;99.90;;;;;;5013228;28;20395;-87
2022/09/11 06:46:40;;;;;;;4.50;2.50;;;17.10;99.90;;;;;;5012470;28;20061;-87
2022/09/11 06:49:05;;;;;;;4.75;2.92;;;17.10;99.90;;;;;;5012783;28;20057;-85
2022/09/11 06:51:31;;;;;;;5.03;2.95;;;17.00;99.90;;;;;;5012587;28;20026;-85
2022/09/11 06:54:00;;;;;;;8.95;6.07;;;17.10;99.90;;;;;;5014218;28;20087;-85
2022/09/11 06:56:27;;;;;;;5.72;2.60;;;17.10;99.90;;;;;;5013759;28;20108;-86
2022/09/11 06:58:53;;;;;;;6.72;2.65;;;17.20;99.90;;;;;;5013347;28;20537;-85
2022/09/11 07:01:20;;;;;;;7.97;2.85;;;17.20;99.90;;;;;;5012989;28;20029;-86
2022/09/11 07:03:48;;;;;;;3.47;2.85;;;17.30;99.90;;;;;;5013137;28;20030;-89
2022/09/11 07:06:25;;;;;;;7.55;3.10;;;17.30;99.90;;;;;;5014381;28;20477;-89
2022/09/11 07:08:53;;;;;;;6.35;3.30;;;17.30;99.90;;;;;;5013051;28;20040;-88
2022/09/11 07:11:19;;;;;;;4.07;3.08;;;17.20;99.90;;;;;;5015006;28;20049;-88
2022/09/11 07:13:46;;;;;;;6.20;3.05;;;17.20;99.90;;;;;;5017476;28;20022;-86
2022/09/11 07:16:12;;;;;;;7.47;3.40;;;17.30;99.90;;;;;;5015945;28;20050;-87
2022/09/11 07:18:42;;;;;;;5.50;3.13;;;17.30;99.90;;;;;;5015593;28;20069;-85
2022/09/11 07:21:15;;;;;;;4.25;3.00;;;17.40;99.90;;;;;;5016471;28;20026;-86
2022/09/11 07:23:42;;;;;;;3.45;2.50;;;17.50;99.90;;;;;;5016830;28;20396;-86
2022/09/11 07:26:10;;;;;;;5.75;2.97;;;17.60;99.90;;;;;;5017302;28;20029;-86
2022/09/11 07:28:36;;;;;;;4.93;2.83;;;17.60;99.90;;;;;;5016460;28;20095;-86
2022/09/11 07:31:14;;;;;;;4.55;3.10;;;17.60;99.90;;;;;;5017245;28;20022;-85
2022/09/11 07:33:44;;;;;;;7.35;3.50;;;17.60;99.90;;;;;;5015034;28;20109;-86
2022/09/11 07:36:31;;;;;;;7.93;4.05;;;17.70;99.90;;;;;;5017212;28;20022;-85
2022/09/11 07:38:58;;;;;;;11.48;3.83;;;17.80;99.90;;;;;;5017138;28;20077;-89
2022/09/11 07:41:25;;;;;;;7.53;3.40;;;17.80;99.90;;;;;;5016857;28;20075;-83
2022/09/11 07:43:59;;;;;;;5.05;3.58;;;17.90;99.90;;;;;;5016446;28;20087;-90
2022/09/11 07:46:25;;;;;;;4.88;2.95;;;18.00;99.90;;;;;;5017426;28;20407;-86
2022/09/11 07:48:53;;;;;;;6.50;3.30;;;18.00;99.90;;;;;;5016511;28;20033;-88
2022/09/11 07:51:19;;;;;;;6.75;3.20;;;18.00;99.90;;;;;;5005384;28;20054;-88
2022/09/11 07:53:47;;;;;;;6.55;3.97;;;18.00;99.90;;;;;;5016129;28;20075;-88
2022/09/11 07:56:18;;;;;;;5.25;3.47;;;18.10;99.90;;;;;;5016301;28;20032;-88
2022/09/11 07:58:44;;;;;;;6.20;3.63;;;18.00;99.90;;;;;;5016260;28;20014;-88
2022/09/11 08:01:13;;;;;;;6.63;3.38;;;18.10;99.90;;;;;;5016855;28;20105;-88
2022/09/11 08:03:38;;;;;;;7.07;3.58;;;18.10;99.90;;;;;;5016078;28;20026;-87
2022/09/11 08:06:12;;;;;;;5.65;3.45;;;18.10;99.90;;;;;;5016757;28;20030;-89
2022/09/11 08:08:38;;;;;;;5.65;3.13;;;18.10;99.90;;;;;;5014364;28;20113;-87
2022/09/11 08:11:23;;;;;;;3.97;3.13;;;18.00;99.90;;;;;;5016143;28;20049;-86
2022/09/11 08:13:52;;;;;;;4.43;3.00;;;18.00;99.90;;;;;;5016244;28;20034;-84
2022/09/11 08:16:23;;;;;;;6.13;2.80;;;18.10;99.90;;;;;;5014577;28;20054;-85
2022/09/11 08:18:50;;;;;;;4.55;3.03;;;18.20;99.90;;;;;;5014831;28;20033;-84
2022/09/11 08:21:17;;;;;;;5.68;3.40;;;18.40;99.90;;;;;;5016143;28;20022;-84
2022/09/11 08:23:44;;;;;;;7.55;3.60;;;18.40;99.90;;;;;;5014165;28;20030;-85
2022/09/11 08:26:25;;;;;;;7.32;3.22;;;18.40;99.90;;;;;;5014704;28;20033;-84
2022/09/11 08:28:53;;;;;;;4.88;2.75;;;18.40;99.90;;;;;;4995929;28;20038;-83
2022/09/11 08:31:21;;;;;;;4.60;3.50;;;18.50;99.90;;;;;;5006575;28;20472;-83
2022/09/11 08:33:48;;;;;;;5.63;3.83;;;18.60;99.90;;;;;;5011887;28;20026;-84
2022/09/11 08:36:14;;;;;;;9.80;4.35;;;18.60;99.90;;;;;;5004651;28;20097;-88
2022/09/11 08:38:41;;;;;;;8.48;4.70;;;18.70;99.90;;;;;;5012452;28;20093;-90
2022/09/11 08:41:22;;;;;;;7.90;3.92;;;18.80;99.90;;;;;;5005964;28;20032;-87
2022/09/11 08:43:52;;;;;;;9.63;5.30;;;18.90;99.90;;;;;;5007958;28;20272;-87
2022/09/11 08:46:21;;;;;;;8.82;4.18;;;18.80;99.90;;;;;;5009302;28;20033;-82
2022/09/11 08:49:14;;;;;;;4.95;3.80;;;18.80;99.90;;;;;;5014887;28;20042;-91
2022/09/11 08:51:41;;;;;;;5.32;3.70;;;18.70;99.90;;;;;;5007010;28;20045;-88
2022/09/11 08:54:10;;;;;;;8.45;3.67;;;18.70;99.90;;;;;;5005493;28;20022;-87
2022/09/11 08:56:37;;;;;;;6.55;3.50;;;18.60;99.90;;;;;;5001217;28;20022;-87
2022/09/11 08:59:09;;;;;;;4.32;3.03;;;18.60;99.90;;;;;;5006821;28;20029;-88
2022/09/11 09:01:49;;;;;;;6.90;3.80;;;18.70;99.90;;;;;;4998943;28;20022;-85
2022/09/11 09:04:15;;;;;;;6.10;3.38;;;18.60;99.90;;;;;;5004627;28;20026;-85
2022/09/11 09:07:06;;;;;;;8.43;3.72;;;18.60;99.90;;;;;;5007556;28;20096;-86
2022/09/11 09:10:09;;;;;;;6.72;3.97;;;18.50;99.90;;;;;;5007138;28;20048;-87
2022/09/11 09:12:52;;;;;;;7.82;4.05;;;18.50;99.90;;;;;;4993908;28;20023;-88
2022/09/11 09:15:33;;;;;;;5.20;3.70;;;18.50;99.90;;;;;;5010785;28;20034;-85
2022/09/11 09:18:05;;;;;;;6.75;3.38;;;18.50;99.90;;;;;;4986792;28;20141;-89
2022/09/11 09:20:35;;;;;;;5.18;3.70;;;18.50;99.90;;;;;;4987998;28;20074;-90
2022/09/11 09:23:05;;;;;;;4.63;3.60;;;18.50;99.90;;;;;;4984216;28;20531;-92
2022/09/11 09:25:36;;;;;;;6.90;3.57;;;18.60;99.90;;;;;;4991228;28;20031;-83
2022/09/11 09:28:26;;;;;;;5.55;3.50;;;18.70;99.90;;;;;;4994198;28;20030;-88
2022/09/11 09:31:05;;;;;;;4.72;3.35;;;18.80;99.90;;;;;;4995215;28;20041;-84
2022/09/11 09:33:47;;;;;;;6.18;3.97;;;18.90;99.90;;;;;;4993677;28;20049;-86
2022/09/11 09:36:19;;;;;;;5.32;3.80;;;18.90;99.90;;;;;;4994101;28;20033;-85
2022/09/11 09:38:46;;;;;;;5.13;3.70;;;19.00;99.90;;;;;;4993545;28;20030;-87
2022/09/11 09:41:32;;;;;;;6.63;3.67;;;19.00;99.90;;;;;;4993930;28;20040;-88
2022/09/11 09:44:21;;;;;;;6.68;4.00;;;18.90;99.90;;;;;;4993081;28;20361;-84
2022/09/11 09:46:50;;;;;;;4.38;3.33;;;18.90;99.90;;;;;;4984770;28;20105;-85
2022/09/11 09:49:22;;;;;;;5.32;3.65;;;19.00;99.90;;;;;;4993803;28;20030;-89
2022/09/11 09:51:48;;;;;;;;;;;19.10;99.90;;;;;;4994060;28;20100;-89
2022/09/11 09:54:15;;;;;;;5.00;3.30;;;19.20;99.90;;;;;;4994997;28;19929;-90
2022/09/11 09:56:43;;;;;;;3.75;2.97;;;19.10;99.90;;;;;;4990172;28;20034;-88
2022/09/11 09:59:20;;;;;;;5.88;4.22;;;19.20;99.90;;;;;;4991953;28;20084;-88
2022/09/11 10:01:49;;;;;;;4.93;3.67;;;19.20;99.90;;;;;;4988092;28;20023;-91
2022/09/11 10:04:24;;;;;;;6.60;3.40;;;19.30;99.90;;;;;;4974552;28;20031;-92
2022/09/11 10:06:51;;;;;;;7.50;3.45;;;19.40;99.90;;;;;;4973439;28;20023;-81
2022/09/11 10:09:23;;;;;;;4.75;3.30;;;19.50;99.90;;;;;;4983869;28;20044;-81
2022/09/11 10:12:11;;;;;;;70.32;5.55;;;19.80;99.90;;;;;;4988493;28;20030;-87
2022/09/11 10:14:52;;;;;;;6.40;3.28;;;19.90;99.90;;;;;;4973062;28;20038;-82
2022/09/11 10:17:32;;;;;;;6.25;3.60;;;20.00;99.90;;;;;;4988698;28;20053;-87
2022/09/11 10:20:18;;;;;;;4.50;3.50;;;20.00;99.90;;;;;;4999995;28;20049;-84
2022/09/11 10:22:45;;;;;;;4.63;3.40;;;20.00;99.90;;;;;;4999545;28;20030;-87
2022/09/11 10:25:12;;;;;;;4.22;3.60;;;19.90;99.90;;;;;;5008816;28;20132;-86
2022/09/11 10:27:50;;;;;;;4.45;3.17;;;20.00;99.90;;;;;;5006362;28;20026;-86
2022/09/11 10:30:56;;;;;;;6.47;3.28;;;20.10;99.90;;;;;;5012122;28;20033;-81
2022/09/11 10:33:33;;;;;;;4.20;2.83;;;20.20;99.90;;;;;;4998826;28;20121;-82
2022/09/11 10:36:02;;;;;;;4.85;2.70;;;20.30;99.90;;;;;;4997837;28;20121;-82
2022/09/11 10:38:47;;;;;;;3.47;2.83;;;20.30;99.90;;;;;;5000937;28;20033;-83
2022/09/11 10:41:12;;;;;;;4.43;2.88;;;20.40;99.90;;;;;;5005794;28;20030;-82
2022/09/11 10:44:00;;;;;;;4.55;3.15;;;20.40;99.90;;;;;;4997595;28;20022;-81
2022/09/11 10:46:27;;;;;;;8.43;3.58;;;20.40;99.90;;;;;;5015105;28;20648;-82
2022/09/11 10:49:13;;;;;;;4.45;2.75;;;20.50;99.90;;;;;;5002770;28;20049;-82
2022/09/11 10:51:40;;;;;;;6.10;4.10;;;20.50;99.90;;;;;;5002007;28;20026;-82
2022/09/11 10:54:29;;;;;;;6.68;4.10;;;20.60;99.90;;;;;;5015364;28;20065;-80
2022/09/11 10:57:21;;;;;;;4.50;3.13;;;20.60;99.90;;;;;;5014674;28;20049;-81
2022/09/11 11:00:16;;;;;;;6.00;3.40;;;20.50;99.90;;;;;;5015661;28;20037;-81
2022/09/11 11:02:48;;;;;;;3.63;3.15;;;20.50;99.90;;;;;;5010324;28;20084;-78
2022/09/11 11:05:35;;;;;;;5.07;3.63;;;20.50;99.90;;;;;;4995754;28;20037;-78
2022/09/11 11:08:29;;;;;;;4.68;3.33;;;20.40;99.90;;;;;;4997664;28;20049;-80
2022/09/11 11:11:28;;;;;;;3.80;3.28;;;20.40;99.90;;;;;;4996239;28;20085;-85
2022/09/11 11:14:36;;;;;;;6.88;3.38;;;20.30;99.90;;;;;;4994440;28;20613;-86
2022/09/11 11:17:30;;;;;;;6.50;3.30;;;20.20;99.90;;;;;;4954752;28;20108;-86
2022/09/11 11:20:09;;;;;;;4.85;3.72;;;20.20;99.90;;;;;;4997807;28;20034;-91
2022/09/11 11:23:11;;;;;;;5.25;3.90;;;20.30;99.90;;;;;;5013750;28;20108;-82
2022/09/11 11:25:47;;;;;;;6.93;3.35;;;20.30;99.90;;;;;;4980828;28;20042;-83
2022/09/11 11:28:13;;;;;;;3.45;3.15;;;20.60;99.90;;;;;;5013596;28;20058;-83
2022/09/11 11:31:06;;;;;;;8.57;2.90;;;20.70;99.90;;;;;;5012392;28;20053;-82
2022/09/11 11:34:03;;;;;;;4.75;3.35;;;20.70;99.90;;;;;;4998946;28;20024;-85
2022/09/11 11:36:46;;;;;;;4.45;3.40;;;20.70;99.90;;;;;;5005431;28;20031;-83
2022/09/11 11:39:30;;;;;;;3.50;2.88;;;20.70;99.90;;;;;;5011339;28;20045;-85
2022/09/11 11:42:09;;;;;;;5.95;3.75;;;20.80;99.90;;;;;;4995538;28;20076;-87
2022/09/11 11:44:41;;;;;;;7.88;3.55;;;20.70;99.90;;;;;;4995412;28;20027;-82
2022/09/11 11:47:09;;;;;;;;;;;20.80;99.90;;;;;;5011707;28;20100;-91
2022/09/11 11:50:04;;;;;;;5.45;3.17;;;20.90;99.90;;;;;;4996552;28;19920;-82
2022/09/11 11:52:30;;;;;;;4.40;2.55;;;20.90;99.90;;;;;;5011053;28;20030;-86
2022/09/11 11:55:20;;;;;;;4.80;3.50;;;21.00;99.90;;;;;;5014992;28;20026;-86
2022/09/11 11:58:03;;;;;;;5.82;3.10;;;21.00;99.90;;;;;;5022244;28;20025;-87
2022/09/11 12:00:38;;;;;;;5.60;3.10;;;21.10;99.90;;;;;;5015303;28;20033;-87
2022/09/11 12:03:15;;;;;;;4.07;3.05;;;21.20;99.90;;;;;;5016561;28;20468;-87
2022/09/11 12:05:41;;;;;;;4.35;2.85;;;21.30;99.90;;;;;;5014306;28;20034;-83
2022/09/11 12:08:15;;;;;;;3.30;2.45;;;21.40;99.90;;;;;;5014909;28;20030;-84
2022/09/11 12:10:45;;;;;;;4.68;2.47;;;21.50;99.90;;;;;;5002674;28;20034;-90
2022/09/11 12:13:16;;;;;;;5.03;2.88;;;21.60;99.90;;;;;;5010945;28;20030;-85
2022/09/11 12:16:13;;;;;;;3.42;2.42;;;21.80;99.90;;;;;;4999702;28;20045;-87
2022/09/11 12:18:41;;;;;;;3.00;2.70;;;22.10;99.90;;;;;;5014750;28;20073;-88
2022/09/11 12:21:22;;;;;;;2.80;2.50;;;22.20;99.90;;;;;;4998079;28;20030;-90
2022/09/11 12:23:47;;;;;;;3.30;2.25;;;22.40;99.90;;;;;;4995521;28;20098;-83
2022/09/11 12:26:22;;;;;;;11.55;2.72;;;22.60;99.90;;;;;;4994752;28;20117;-81
2022/09/11 12:29:08;;;;;;;3.83;2.50;;;22.70;99.90;;;;;;5008775;28;20053;-84
2022/09/11 12:31:49;;;;;;;3.25;2.25;;;22.80;99.90;;;;;;5010764;28;20026;-86
2022/09/11 12:34:17;;;;;;;2.70;2.50;;;23.00;99.20;;;;;;5011981;28;20030;-80
2022/09/11 12:36:52;;;;;;;3.05;1.98;;;23.20;99.60;;;;;;5008613;28;20033;-81
2022/09/11 12:39:28;;;;;;;3.70;2.00;;;23.50;98.30;;;;;;5012903;28;20530;-80
2022/09/11 12:42:22;;;;;;;3.50;2.20;;;23.70;98.10;;;;;;4995111;28;20030;-81
2022/09/11 12:44:48;;;;;;;2.65;2.10;;;23.90;97.40;;;;;;4993616;28;20037;-83
2022/09/11 12:47:46;;;;;;;3.20;1.60;;;24.10;97.10;;;;;;5003491;28;20038;-81
2022/09/11 12:50:17;;;;;;;3.97;1.73;;;24.30;96.30;;;;;;4976574;28;20053;-83
2022/09/11 12:52:53;;;;;;;2.30;1.80;;;24.30;95.90;;;;;;5013546;28;20117;-84
2022/09/11 12:55:42;;;;;;;3.20;1.83;;;24.50;95.60;;;;;;5013221;28;20026;-81
2022/09/11 12:58:30;;;;;;;2.35;1.85;;;24.60;94.50;;;;;;5011758;28;20112;-82
2022/09/11 13:01:23;;;;;;;2.17;1.73;;;24.70;94.80;;;;;;4998604;28;20026;-84
2022/09/11 13:04:07;;;;;;;5.05;2.10;;;24.20;94.00;;;;;;5000318;28;20029;-82
2022/09/11 13:06:41;;;;;;;2.25;1.50;;;24.30;93.80;;;;;;5014864;28;20061;-85
2022/09/11 13:09:20;;;;;;;2.15;1.70;;;24.00;93.80;;;;;;5012931;28;20026;-84
2022/09/11 13:11:48;;;;;;;2.63;1.73;;;23.80;94.00;;;;;;4993632;28;20027;-84
2022/09/11 13:14:26;;;;;;;2.20;2.00;;;23.50;94.40;;;;;;5009566;28;20076;-84